Time;durP1;ratioP1;P1;durP2;ratioP2;P2;SDS_P1;SDS_P2;PMS_P1;PMS_P2;Temp;Humidity;BMP_temperature;BMP_pressure;BME280_temperature;BME280_humidity;BME280_pressure;Samples;Min_cycle;Max_cycle;Signal;HPM_P1;HPM_P2
2021/12/27 00:00:04;;;;;;;20.83;7.65;;;-4.20;99.90;;;;;;5003234;28;20034;-58
2021/12/27 00:02:30;;;;;;;27.65;9.00;;;-4.20;99.90;;;;;;4993126;28;20493;-57
2021/12/27 00:04:55;;;;;;;23.48;8.82;;;-4.30;99.90;;;;;;4996173;28;20025;-59
2021/12/27 00:07:21;;;;;;;22.10;7.90;;;-4.30;99.90;;;;;;5002413;28;20034;-58
2021/12/27 00:09:49;;;;;;;19.95;8.02;;;-4.30;99.90;;;;;;5002284;28;20026;-57
2021/12/27 00:12:14;;;;;;;27.02;8.10;;;-4.30;99.90;;;;;;5007572;28;20037;-58
2021/12/27 00:14:40;;;;;;;24.05;8.82;;;-4.30;99.90;;;;;;5008746;28;20038;-57
2021/12/27 00:17:05;;;;;;;25.58;8.93;;;-4.40;99.90;;;;;;5012228;28;20037;-58
2021/12/27 00:19:32;;;;;;;29.30;8.30;;;-4.30;99.90;;;;;;4996433;28;20119;-58
2021/12/27 00:21:57;;;;;;;25.08;8.88;;;-4.30;99.90;;;;;;5012057;28;20345;-59
2021/12/27 00:24:23;;;;;;;27.95;9.30;;;-4.30;99.90;;;;;;4995651;28;20060;-58
2021/12/27 00:26:49;;;;;;;25.40;8.85;;;-4.30;99.90;;;;;;5004241;28;20253;-58
2021/12/27 00:29:15;;;;;;;26.88;9.52;;;-4.30;99.90;;;;;;5011589;28;20014;-58
2021/12/27 00:31:42;;;;;;;28.65;9.50;;;-4.30;99.90;;;;;;5012989;28;20491;-58
2021/12/27 00:34:07;;;;;;;26.00;9.85;;;-4.20;99.90;;;;;;5011883;28;20033;-59
2021/12/27 00:36:33;;;;;;;30.80;8.95;;;-4.20;99.90;;;;;;5013065;28;20055;-59
2021/12/27 00:38:59;;;;;;;25.33;10.48;;;-4.10;99.90;;;;;;5004086;28;20028;-59
2021/12/27 00:41:24;;;;;;;23.23;8.80;;;-4.20;99.90;;;;;;5013713;28;20116;-58
2021/12/27 00:43:50;;;;;;;25.67;9.85;;;-4.10;99.90;;;;;;5001201;28;20569;-57
2021/12/27 00:46:16;;;;;;;26.50;10.30;;;-4.10;99.90;;;;;;5008808;28;20117;-58
2021/12/27 00:48:41;;;;;;;23.58;8.55;;;-4.10;99.90;;;;;;5013803;28;20034;-59
2021/12/27 00:51:08;;;;;;;27.65;9.70;;;-4.10;99.90;;;;;;5011732;28;20022;-59
2021/12/27 00:53:34;;;;;;;28.13;10.63;;;-4.10;99.90;;;;;;5011698;28;20026;-57
2021/12/27 00:56:00;;;;;;;30.00;10.00;;;-4.10;99.90;;;;;;4998802;28;20052;-59
2021/12/27 00:58:26;;;;;;;29.75;10.52;;;-4.10;99.90;;;;;;5006299;28;20129;-59
2021/12/27 01:00:51;;;;;;;28.23;10.15;;;-4.10;99.90;;;;;;5005898;28;20065;-59
2021/12/27 01:03:18;;;;;;;28.80;11.07;;;-4.20;99.90;;;;;;4996452;28;20057;-59
2021/12/27 01:05:44;;;;;;;29.63;11.40;;;-4.20;99.90;;;;;;4997080;28;20025;-58
2021/12/27 01:08:09;;;;;;;30.27;10.63;;;-4.20;99.90;;;;;;4997735;28;20496;-59
2021/12/27 01:11:09;;;;;;;29.98;11.38;;;-4.20;99.90;;;;;;5009428;28;20447;-58
2021/12/27 01:13:44;;;;;;;28.80;10.13;;;-4.20;99.90;;;;;;5010780;28;20026;-56
2021/12/27 01:16:11;;;;;;;32.75;10.73;;;-4.10;99.90;;;;;;5011012;28;20030;-58
2021/12/27 01:18:44;;;;;;;30.45;11.00;;;-4.10;99.90;;;;;;5011376;28;20337;-58
2021/12/27 01:21:11;;;;;;;29.30;11.20;;;-4.20;99.90;;;;;;5006756;28;20091;-58
2021/12/27 01:23:37;;;;;;;33.45;10.55;;;-4.20;99.90;;;;;;5010744;28;20105;-56
2021/12/27 01:26:03;;;;;;;35.65;11.55;;;-4.20;99.90;;;;;;5010359;28;20022;-58
2021/12/27 01:28:29;;;;;;;33.30;11.18;;;-4.10;99.90;;;;;;5011085;28;20022;-57
2021/12/27 01:30:54;;;;;;;34.65;12.27;;;-4.10;99.90;;;;;;5011297;28;20037;-57
2021/12/27 01:33:23;;;;;;;34.40;11.55;;;-4.10;99.90;;;;;;5011705;28;20091;-58
2021/12/27 01:35:49;;;;;;;35.83;12.88;;;-4.10;99.90;;;;;;5011698;28;20121;-59
2021/12/27 01:38:14;;;;;;;35.30;11.27;;;-4.00;99.90;;;;;;5012744;28;20133;-58
2021/12/27 01:40:46;;;;;;;35.85;11.77;;;-4.00;99.90;;;;;;5011818;28;20041;-59
2021/12/27 01:43:20;;;;;;;32.38;13.75;;;-4.00;99.90;;;;;;5012032;28;20120;-59
2021/12/27 01:45:53;;;;;;;41.80;11.75;;;-4.00;99.90;;;;;;5010607;28;20399;-59
2021/12/27 01:48:21;;;;;;;36.45;12.95;;;-4.00;99.90;;;;;;5012323;28;20459;-58
2021/12/27 01:50:48;;;;;;;38.00;12.43;;;-4.00;99.90;;;;;;5011437;28;20030;-59
2021/12/27 01:53:15;;;;;;;39.03;13.45;;;-4.00;99.90;;;;;;5011080;28;20391;-57
2021/12/27 01:55:41;;;;;;;31.60;11.90;;;-4.10;99.90;;;;;;5011573;28;20031;-59
2021/12/27 01:58:07;;;;;;;37.38;12.77;;;-4.00;99.90;;;;;;5011570;28;20109;-56
2021/12/27 02:00:35;;;;;;;38.38;12.88;;;-4.10;99.90;;;;;;5010788;28;20129;-59
2021/12/27 02:03:03;;;;;;;47.60;14.15;;;-4.00;99.90;;;;;;5010527;28;20100;-58
2021/12/27 02:05:29;;;;;;;37.80;13.20;;;-4.00;99.90;;;;;;5011404;28;20065;-56
2021/12/27 02:07:55;;;;;;;38.17;13.13;;;-4.00;99.90;;;;;;5011014;28;20104;-57
2021/12/27 02:10:21;;;;;;;39.72;14.38;;;-4.00;99.90;;;;;;5010452;28;20456;-59
2021/12/27 02:12:46;;;;;;;44.72;14.88;;;-4.00;99.90;;;;;;5011140;28;20045;-59
2021/12/27 02:15:13;;;;;;;43.10;15.73;;;-4.00;99.90;;;;;;5011576;28;20026;-59
2021/12/27 02:17:41;;;;;;;38.38;13.20;;;-3.90;99.90;;;;;;5010150;28;20539;-58
2021/12/27 02:20:10;;;;;;;34.05;13.02;;;-3.90;99.90;;;;;;5010844;28;20057;-59
2021/12/27 02:22:37;;;;;;;36.17;13.02;;;-3.90;99.90;;;;;;5010205;28;20060;-58
2021/12/27 02:25:05;;;;;;;40.90;14.93;;;-4.00;99.90;;;;;;5011434;28;20038;-59
2021/12/27 02:27:31;;;;;;;44.08;14.02;;;-4.00;99.90;;;;;;5010606;28;20030;-58
2021/12/27 02:29:56;;;;;;;40.63;13.95;;;-4.00;99.90;;;;;;5010671;28;20033;-58
2021/12/27 02:32:22;;;;;;;48.90;13.38;;;-4.00;99.90;;;;;;5009682;28;20036;-59
2021/12/27 02:34:48;;;;;;;34.40;12.85;;;-4.00;99.90;;;;;;5011230;28;20607;-59
2021/12/27 02:37:13;;;;;;;39.88;14.45;;;-4.00;99.90;;;;;;5009677;28;20116;-58
2021/12/27 02:39:39;;;;;;;40.65;14.75;;;-4.10;99.90;;;;;;5008930;28;20391;-59
2021/12/27 02:42:05;;;;;;;37.75;14.07;;;-4.10;99.90;;;;;;5010827;28;20472;-58
2021/12/27 02:44:31;;;;;;;40.05;14.25;;;-4.10;99.90;;;;;;5011183;28;20061;-58
2021/12/27 02:46:56;;;;;;;39.30;13.77;;;-4.10;99.90;;;;;;5010848;28;20088;-59
2021/12/27 02:49:22;;;;;;;44.25;15.52;;;-4.10;99.90;;;;;;5008661;28;20060;-59
2021/12/27 02:51:48;;;;;;;41.03;14.10;;;-4.00;99.90;;;;;;5009580;28;20034;-56
2021/12/27 02:54:14;;;;;;;45.15;14.35;;;-4.10;99.90;;;;;;5008849;28;20404;-59
2021/12/27 02:56:40;;;;;;;41.95;14.55;;;-4.10;99.90;;;;;;5010433;28;20041;-59
2021/12/27 02:59:05;;;;;;;44.53;14.25;;;-4.10;99.90;;;;;;5009807;28;20538;-59
2021/12/27 03:01:31;;;;;;;42.97;14.80;;;-4.10;99.90;;;;;;5010288;28;20042;-58
2021/12/27 03:03:57;;;;;;;42.10;15.40;;;-4.20;99.90;;;;;;5010377;28;20026;-58
2021/12/27 03:06:22;;;;;;;42.03;13.57;;;-4.10;99.90;;;;;;5009703;28;20030;-58
2021/12/27 03:08:49;;;;;;;44.08;14.52;;;-4.10;99.90;;;;;;5010935;28;20065;-58
2021/12/27 03:11:15;;;;;;;48.80;16.02;;;-4.10;99.90;;;;;;5009758;28;20073;-58
2021/12/27 03:13:46;;;;;;;42.63;15.40;;;-3.90;99.90;;;;;;5009009;28;20032;-58
2021/12/27 03:16:15;;;;;;;47.78;16.33;;;-4.00;99.90;;;;;;5010542;28;20014;-56
2021/12/27 03:18:48;;;;;;;44.85;14.75;;;-4.00;99.90;;;;;;5009485;28;20018;-56
2021/12/27 03:21:13;;;;;;;41.92;16.80;;;-4.00;99.90;;;;;;5010164;28;20475;-57
2021/12/27 03:23:40;;;;;;;42.13;15.02;;;-4.00;99.90;;;;;;5009138;28;20030;-56
2021/12/27 03:26:07;;;;;;;49.80;15.40;;;-4.00;99.90;;;;;;5009607;28;20030;-58
2021/12/27 03:28:33;;;;;;;40.92;16.13;;;-4.00;99.90;;;;;;5010032;28;20026;-57
2021/12/27 03:31:00;;;;;;;44.17;14.88;;;-3.90;99.90;;;;;;5013285;28;20029;-58
2021/12/27 03:33:26;;;;;;;47.85;16.55;;;-4.00;99.90;;;;;;5015033;28;20078;-57
2021/12/27 03:36:03;;;;;;;42.25;15.93;;;-4.00;99.90;;;;;;5020543;28;20045;-57
2021/12/27 03:38:41;;;;;;;48.90;15.40;;;-4.00;99.90;;;;;;5010058;28;20038;-57
2021/12/27 03:41:17;;;;;;;52.08;16.52;;;-4.00;99.90;;;;;;5008883;28;20484;-57
2021/12/27 03:43:43;;;;;;;43.80;14.55;;;-4.00;99.90;;;;;;5002384;28;20121;-55
2021/12/27 03:46:09;;;;;;;47.03;15.35;;;-3.90;99.90;;;;;;5009709;28;20022;-57
2021/12/27 03:48:35;;;;;;;46.13;15.23;;;-3.90;99.90;;;;;;5006045;28;20115;-57
2021/12/27 03:51:02;;;;;;;57.03;17.17;;;-3.90;99.90;;;;;;5008367;28;20021;-58
2021/12/27 03:53:29;;;;;;;46.20;16.48;;;-3.90;99.90;;;;;;5009113;28;20162;-57
2021/12/27 03:55:55;;;;;;;47.78;15.45;;;-3.90;99.90;;;;;;5008423;28;20038;-58
2021/12/27 03:58:34;;;;;;;47.17;15.95;;;-3.90;99.90;;;;;;5009272;28;20028;-58
2021/12/27 04:01:13;;;;;;;49.15;15.32;;;-3.80;99.90;;;;;;5009472;28;20499;-58
2021/12/27 04:03:39;;;;;;;43.90;16.13;;;-3.80;99.90;;;;;;5005269;28;20042;-57
2021/12/27 04:06:05;;;;;;;46.60;16.58;;;-3.80;99.90;;;;;;5010074;28;20101;-58
2021/12/27 04:08:30;;;;;;;46.63;15.68;;;-3.70;99.90;;;;;;5009600;28;20034;-58
2021/12/27 04:10:56;;;;;;;43.88;16.95;;;-3.80;99.90;;;;;;5009262;28;20053;-58
2021/12/27 04:13:22;;;;;;;55.90;16.55;;;-3.70;99.90;;;;;;5008913;28;20037;-58
2021/12/27 04:15:49;;;;;;;40.13;15.23;;;-3.70;99.90;;;;;;5009169;28;20044;-58
2021/12/27 04:18:16;;;;;;;53.58;18.13;;;-3.70;99.90;;;;;;5009397;28;20109;-58
2021/12/27 04:20:42;;;;;;;40.90;16.23;;;-3.70;99.90;;;;;;5009020;28;20025;-59
2021/12/27 04:23:08;;;;;;;54.90;17.58;;;-3.60;99.90;;;;;;5008627;28;20033;-58
2021/12/27 04:25:34;;;;;;;48.53;16.58;;;-3.70;99.90;;;;;;5009544;28;20057;-58
2021/12/27 04:28:01;;;;;;;45.55;17.02;;;-3.70;99.90;;;;;;5009445;28;20041;-57
2021/12/27 04:30:26;;;;;;;54.15;16.58;;;-3.70;99.90;;;;;;5008679;28;20022;-58
2021/12/27 04:32:52;;;;;;;42.63;15.82;;;-3.70;99.90;;;;;;5008579;28;20084;-56
2021/12/27 04:35:19;;;;;;;47.60;16.70;;;-3.70;99.90;;;;;;5008176;28;20042;-58
2021/12/27 04:37:46;;;;;;;49.58;17.63;;;-3.70;99.90;;;;;;5007927;28;20603;-57
2021/12/27 04:40:14;;;;;;;47.15;17.15;;;-3.70;99.90;;;;;;5008559;28;20026;-57
2021/12/27 04:42:45;;;;;;;53.75;16.77;;;-3.70;99.90;;;;;;5004878;28;20530;-59
2021/12/27 04:45:13;;;;;;;56.17;17.97;;;-3.70;99.90;;;;;;5005821;28;20487;-57
2021/12/27 04:47:39;;;;;;;44.95;16.02;;;-3.60;99.90;;;;;;4991252;28;20096;-58
2021/12/27 04:50:05;;;;;;;42.65;15.55;;;-3.60;99.90;;;;;;5009181;28;20104;-58
2021/12/27 04:52:30;;;;;;;46.92;16.27;;;-3.60;99.90;;;;;;5007122;28;20025;-59
2021/12/27 04:54:56;;;;;;;49.03;18.00;;;-3.60;99.90;;;;;;5008819;28;20041;-58
2021/12/27 04:57:22;;;;;;;60.22;17.23;;;-3.50;99.90;;;;;;5009128;28;20523;-58
2021/12/27 04:59:47;;;;;;;51.60;18.38;;;-3.50;99.90;;;;;;5010035;28;20423;-57
2021/12/27 05:02:13;;;;;;;54.00;18.83;;;-3.50;99.90;;;;;;5011339;28;20030;-58
2021/12/27 05:04:39;;;;;;;51.95;18.58;;;-3.50;99.90;;;;;;5012619;28;20399;-57
2021/12/27 05:07:04;;;;;;;53.53;17.80;;;-3.50;99.90;;;;;;5012390;28;20373;-58
2021/12/27 05:09:30;;;;;;;52.33;18.83;;;-3.40;99.90;;;;;;5011962;28;20476;-58
2021/12/27 05:11:56;;;;;;;49.97;18.02;;;-3.40;99.90;;;;;;5012222;28;20139;-57
2021/12/27 05:14:21;;;;;;;47.63;18.05;;;-3.30;99.90;;;;;;5011602;28;20037;-58
2021/12/27 05:16:48;;;;;;;52.28;17.92;;;-3.30;99.90;;;;;;5012187;28;20221;-57
2021/12/27 05:19:15;;;;;;;44.38;17.15;;;-3.30;99.90;;;;;;5011147;28;20033;-58
2021/12/27 05:21:41;;;;;;;57.92;20.17;;;-3.30;99.90;;;;;;5010915;28;20038;-58
2021/12/27 05:24:07;;;;;;;61.67;19.23;;;-3.20;99.90;;;;;;5010737;28;20034;-58
2021/12/27 05:26:32;;;;;;;57.42;18.45;;;-3.20;99.90;;;;;;5011886;28;20405;-58
2021/12/27 05:28:58;;;;;;;47.67;16.90;;;-3.10;99.90;;;;;;5011262;28;20030;-58
2021/12/27 05:31:24;;;;;;;53.10;17.20;;;-3.20;99.90;;;;;;5012142;28;20026;-58
2021/12/27 05:33:50;;;;;;;50.00;16.52;;;-3.20;99.90;;;;;;5011807;28;20124;-58
2021/12/27 05:36:16;;;;;;;54.47;18.73;;;-3.20;99.90;;;;;;5011945;28;20025;-57
2021/12/27 05:38:41;;;;;;;54.17;19.42;;;-3.10;99.90;;;;;;5011751;28;20092;-58
2021/12/27 05:41:07;;;;;;;53.50;19.42;;;-3.10;99.90;;;;;;5012602;28;20543;-57
2021/12/27 05:43:33;;;;;;;52.80;19.45;;;-3.10;99.90;;;;;;5010724;28;20025;-57
2021/12/27 05:45:59;;;;;;;52.67;18.92;;;-3.10;99.90;;;;;;5011397;28;20029;-56
2021/12/27 05:48:25;;;;;;;53.20;17.98;;;-3.10;99.90;;;;;;5011975;28;20026;-57
2021/12/27 05:50:51;;;;;;;57.15;19.25;;;-3.20;99.90;;;;;;5011102;28;20025;-57
2021/12/27 05:53:16;;;;;;;62.40;20.40;;;-3.20;99.90;;;;;;5011583;28;20605;-58
2021/12/27 05:55:43;;;;;;;56.05;18.15;;;-3.20;99.90;;;;;;5011042;28;20034;-58
2021/12/27 05:58:09;;;;;;;55.45;19.85;;;-3.10;99.90;;;;;;5012049;28;20045;-58
2021/12/27 06:00:35;;;;;;;52.03;18.80;;;-3.20;99.90;;;;;;5011494;28;20034;-59
2021/12/27 06:03:01;;;;;;;59.20;18.95;;;-3.10;99.90;;;;;;5011423;28;20397;-57
2021/12/27 06:05:27;;;;;;;53.35;19.77;;;-3.10;99.90;;;;;;5011531;28;20388;-57
2021/12/27 06:07:53;;;;;;;55.63;19.00;;;-3.10;99.90;;;;;;5007511;28;20037;-57
2021/12/27 06:10:19;;;;;;;52.92;19.52;;;-3.10;99.90;;;;;;5009230;28;20494;-59
2021/12/27 06:12:48;;;;;;;54.13;20.00;;;-3.20;99.90;;;;;;5010822;28;20164;-57
2021/12/27 06:15:14;;;;;;;52.55;19.15;;;-3.20;99.90;;;;;;5010242;28;20026;-58
2021/12/27 06:17:40;;;;;;;64.03;21.25;;;-3.20;99.90;;;;;;5011283;28;20100;-59
2021/12/27 06:20:09;;;;;;;53.00;19.95;;;-3.20;99.90;;;;;;5010918;28;20041;-57
2021/12/27 06:22:37;;;;;;;63.47;20.55;;;-3.20;99.90;;;;;;5010669;28;20088;-57
2021/12/27 06:25:04;;;;;;;57.05;18.98;;;-3.20;99.90;;;;;;5011008;28;20053;-59
2021/12/27 06:27:31;;;;;;;57.85;19.83;;;-3.20;99.90;;;;;;5011449;28;20038;-58
2021/12/27 06:29:58;;;;;;;56.40;19.98;;;-3.30;99.90;;;;;;5009976;28;20022;-60
2021/12/27 06:32:24;;;;;;;62.75;21.23;;;-3.30;99.90;;;;;;5010349;28;20025;-54
2021/12/27 06:34:49;;;;;;;66.05;20.95;;;-3.30;99.90;;;;;;5010490;28;20038;-56
2021/12/27 06:37:15;;;;;;;50.22;19.77;;;-3.30;99.90;;;;;;5011770;28;20431;-57
2021/12/27 06:39:40;;;;;;;57.40;20.13;;;-3.30;99.90;;;;;;5011215;28;20534;-57
2021/12/27 06:42:07;;;;;;;52.88;20.33;;;-3.40;99.90;;;;;;5009854;28;20061;-57
2021/12/27 06:44:33;;;;;;;57.25;19.63;;;-3.30;99.90;;;;;;5010501;28;20061;-58
2021/12/27 06:46:59;;;;;;;56.35;20.45;;;-3.30;99.90;;;;;;5011292;28;20033;-57
2021/12/27 06:49:27;;;;;;;59.88;22.00;;;-3.20;99.90;;;;;;5010995;28;20037;-57
2021/12/27 06:51:53;;;;;;;58.00;20.75;;;-3.10;99.90;;;;;;5010192;28;20026;-56
2021/12/27 06:54:19;;;;;;;61.25;21.02;;;-3.10;99.90;;;;;;5009743;28;20100;-58
2021/12/27 06:56:45;;;;;;;60.55;22.20;;;-3.00;99.90;;;;;;5011143;28;20033;-57
2021/12/27 06:59:11;;;;;;;55.92;20.90;;;-3.10;99.90;;;;;;5010492;28;20064;-56
2021/12/27 07:01:36;;;;;;;56.47;19.17;;;-3.00;99.90;;;;;;5010328;28;20495;-55
2021/12/27 07:04:02;;;;;;;63.53;20.77;;;-3.00;99.90;;;;;;5006070;28;20257;-57
2021/12/27 07:06:28;;;;;;;58.40;20.15;;;-3.00;99.90;;;;;;5009202;28;20030;-57
2021/12/27 07:08:53;;;;;;;58.75;21.73;;;-3.00;99.90;;;;;;5010006;28;20537;-59
2021/12/27 07:11:19;;;;;;;59.08;21.55;;;-3.00;99.90;;;;;;5009208;28;20037;-58
2021/12/27 07:13:45;;;;;;;62.08;22.38;;;-3.10;99.90;;;;;;5009355;28;20135;-58
2021/12/27 07:16:10;;;;;;;50.78;21.42;;;-3.00;99.90;;;;;;5010084;28;20092;-55
2021/12/27 07:18:36;;;;;;;57.55;22.58;;;-3.00;99.90;;;;;;4998413;28;20041;-58
2021/12/27 07:21:01;;;;;;;55.75;21.67;;;-2.90;99.90;;;;;;5007197;28;20108;-55
2021/12/27 07:23:27;;;;;;;68.80;24.00;;;-2.90;99.90;;;;;;5005189;28;20046;-58
2021/12/27 07:25:53;;;;;;;58.17;20.70;;;-2.90;99.90;;;;;;5009344;28;20054;-57
2021/12/27 07:28:18;;;;;;;62.65;22.02;;;-2.90;99.90;;;;;;5008390;28;20365;-60
2021/12/27 07:30:44;;;;;;;66.53;23.75;;;-2.80;99.90;;;;;;5016600;28;20049;-56
2021/12/27 07:33:10;;;;;;;60.88;23.08;;;-2.70;99.90;;;;;;5011823;28;20467;-58
2021/12/27 07:35:36;;;;;;;65.05;22.25;;;-2.90;99.90;;;;;;5006307;28;20039;-60
2021/12/27 07:38:03;;;;;;;64.43;22.52;;;-2.90;99.90;;;;;;4995032;28;20108;-58
2021/12/27 07:40:28;;;;;;;67.32;23.92;;;-2.90;99.90;;;;;;4995934;28;20048;-58
2021/12/27 07:42:54;;;;;;;62.15;21.30;;;-3.00;99.90;;;;;;5002303;28;20042;-61
2021/12/27 07:45:20;;;;;;;62.72;22.92;;;-3.00;99.90;;;;;;4997041;28;20053;-60
2021/12/27 07:47:46;;;;;;;62.65;23.42;;;-3.00;99.90;;;;;;5008888;28;20101;-59
2021/12/27 07:50:12;;;;;;;68.38;24.88;;;-3.10;99.90;;;;;;5006403;28;20029;-58
2021/12/27 07:52:38;;;;;;;63.08;23.70;;;-3.10;99.90;;;;;;5006884;28;20056;-59
2021/12/27 07:55:04;;;;;;;58.55;23.08;;;-3.00;99.90;;;;;;5010003;28;20049;-55
2021/12/27 07:57:30;;;;;;;61.67;23.13;;;-3.00;99.90;;;;;;5008819;28;20023;-56
2021/12/27 07:59:55;;;;;;;55.85;21.55;;;-3.00;99.90;;;;;;5011783;28;20084;-53
2021/12/27 08:02:21;;;;;;;71.03;23.20;;;-3.00;99.90;;;;;;5009814;28;20040;-53
2021/12/27 08:04:47;;;;;;;71.68;24.95;;;-3.00;99.90;;;;;;5009076;28;20076;-51
2021/12/27 08:07:12;;;;;;;63.08;23.15;;;-2.90;99.90;;;;;;5005435;28;20432;-53
2021/12/27 08:09:38;;;;;;;72.50;23.63;;;-2.90;99.90;;;;;;4993818;28;20062;-54
2021/12/27 08:12:06;;;;;;;62.85;23.60;;;-2.90;99.90;;;;;;4992384;28;20038;-55
2021/12/27 08:14:31;;;;;;;60.50;23.55;;;-2.90;99.90;;;;;;4994299;28;20030;-53
2021/12/27 08:16:57;;;;;;;68.47;25.05;;;-2.90;99.90;;;;;;4996178;28;20425;-54
2021/12/27 08:19:23;;;;;;;72.35;23.88;;;-2.80;99.90;;;;;;5008948;28;20033;-53
2021/12/27 08:21:49;;;;;;;61.13;22.10;;;-2.80;99.90;;;;;;4998581;28;21187;-52
2021/12/27 08:24:15;;;;;;;59.83;23.70;;;-2.80;99.90;;;;;;5009906;28;20388;-54
2021/12/27 08:26:41;;;;;;;63.17;23.48;;;-2.80;99.90;;;;;;5009930;28;20241;-54
2021/12/27 08:29:09;;;;;;;79.10;25.40;;;-2.80;99.90;;;;;;5001965;28;20063;-56
2021/12/27 08:31:35;;;;;;;65.32;25.00;;;-2.80;99.90;;;;;;4990140;28;20468;-56
2021/12/27 08:34:01;;;;;;;67.72;24.70;;;-2.80;99.90;;;;;;5014429;28;20038;-57
2021/12/27 08:36:26;;;;;;;66.28;25.27;;;-2.80;99.90;;;;;;5001713;28;20064;-54
2021/12/27 08:38:53;;;;;;;67.05;22.77;;;-2.70;99.90;;;;;;5001574;28;20513;-54
2021/12/27 08:41:19;;;;;;;66.03;23.20;;;-2.70;99.90;;;;;;5008769;28;20665;-57
2021/12/27 08:43:46;;;;;;;70.18;24.70;;;-2.70;99.90;;;;;;4993969;28;20026;-55
2021/12/27 08:46:12;;;;;;;63.95;22.75;;;-2.80;99.90;;;;;;5011154;28;20084;-55
2021/12/27 08:48:38;;;;;;;72.50;26.90;;;-2.70;99.90;;;;;;5012682;28;20045;-54
2021/12/27 08:51:04;;;;;;;72.53;25.33;;;-2.70;99.90;;;;;;4997175;28;20609;-54
2021/12/27 08:53:30;;;;;;;61.35;24.10;;;-2.60;99.90;;;;;;4995503;28;20038;-54
2021/12/27 08:55:57;;;;;;;62.60;23.40;;;-2.60;99.90;;;;;;4997829;28;20075;-53
2021/12/27 08:58:22;;;;;;;63.15;24.02;;;-2.60;99.90;;;;;;4996690;28;20473;-55
2021/12/27 09:00:48;;;;;;;69.75;26.05;;;-2.50;99.90;;;;;;4996082;28;20030;-56
2021/12/27 09:03:14;;;;;;;70.32;26.38;;;-2.50;99.90;;;;;;4994725;28;20497;-57
2021/12/27 09:05:41;;;;;;;68.72;26.27;;;-2.50;99.90;;;;;;4994949;28;20042;-54
2021/12/27 09:08:07;;;;;;;69.15;26.33;;;-2.40;99.90;;;;;;4997596;28;20471;-53
2021/12/27 09:10:33;;;;;;;66.97;24.67;;;-2.30;99.90;;;;;;4994219;28;20022;-57
2021/12/27 09:13:00;;;;;;;77.88;28.55;;;-2.40;99.90;;;;;;4998770;28;20030;-55
2021/12/27 09:15:26;;;;;;;75.85;27.83;;;-2.30;99.90;;;;;;4994891;28;20030;-55
2021/12/27 09:17:52;;;;;;;70.57;27.02;;;-2.40;99.90;;;;;;4997841;28;20120;-53
2021/12/27 09:20:18;;;;;;;79.07;27.67;;;-2.30;99.90;;;;;;5003840;28;20169;-56
2021/12/27 09:22:43;;;;;;;78.25;26.42;;;-2.20;99.90;;;;;;4996150;28;20041;-56
2021/12/27 09:25:09;;;;;;;68.13;26.38;;;-2.20;99.90;;;;;;4999454;28;20053;-55
2021/12/27 09:27:35;;;;;;;71.05;27.42;;;-2.30;99.90;;;;;;4990631;28;20072;-54
2021/12/27 09:30:02;;;;;;;78.82;26.08;;;-2.30;99.90;;;;;;5013135;28;20080;-52
2021/12/27 09:32:28;;;;;;;75.13;26.50;;;-2.20;99.90;;;;;;5009955;28;20034;-56
2021/12/27 09:34:54;;;;;;;75.75;26.25;;;-2.10;99.90;;;;;;4996703;28;20032;-51
2021/12/27 09:37:19;;;;;;;70.78;26.98;;;-2.10;99.90;;;;;;4993923;28;20145;-56
2021/12/27 09:39:52;;;;;;;64.22;25.48;;;-2.00;99.90;;;;;;4989955;28;20391;-54
2021/12/27 09:42:19;;;;;;;69.40;25.67;;;-2.10;99.90;;;;;;4996379;28;20036;-56
2021/12/27 09:44:44;;;;;;;68.18;27.70;;;-2.10;99.90;;;;;;4990512;28;20061;-55
2021/12/27 09:47:10;;;;;;;74.18;27.25;;;-2.10;99.90;;;;;;5010446;28;20510;-52
2021/12/27 09:49:36;;;;;;;79.20;27.90;;;-2.10;99.90;;;;;;5011200;28;20101;-55
2021/12/27 09:52:03;;;;;;;66.60;25.92;;;-2.10;99.90;;;;;;5010897;28;20040;-54
2021/12/27 09:54:29;;;;;;;68.75;26.27;;;-2.10;99.90;;;;;;4992342;28;20185;-56
2021/12/27 09:56:55;;;;;;;75.70;27.95;;;-2.20;99.90;;;;;;4992431;28;20407;-57
2021/12/27 09:59:22;;;;;;;66.57;26.45;;;-2.10;99.90;;;;;;4991188;28;20037;-57
2021/12/27 10:01:48;;;;;;;74.90;26.02;;;-2.10;99.90;;;;;;5001056;28;20165;-56
2021/12/27 10:04:14;;;;;;;67.50;26.23;;;-2.10;99.90;;;;;;5008453;28;20163;-52
2021/12/27 10:06:41;;;;;;;74.35;26.00;;;-2.10;99.90;;;;;;5010182;28;20029;-55
2021/12/27 10:09:06;;;;;;;74.90;28.80;;;-2.10;99.90;;;;;;5010352;28;20163;-53
2021/12/27 10:11:39;;;;;;;75.13;29.17;;;-2.10;99.90;;;;;;5010358;28;20091;-53
2021/12/27 10:14:11;;;;;;;72.88;27.85;;;-2.00;99.90;;;;;;5010839;28;20036;-53
2021/12/27 10:17:08;;;;;;;69.88;27.88;;;-2.00;99.90;;;;;;5011393;28;20387;-52
2021/12/27 10:19:36;;;;;;;74.22;27.35;;;-1.90;99.90;;;;;;5005173;28;20029;-54
2021/12/27 10:22:01;;;;;;;79.45;28.88;;;-1.90;99.90;;;;;;5014085;28;20337;-53
2021/12/27 10:24:28;;;;;;;74.80;28.48;;;-1.90;99.90;;;;;;5011067;28;20168;-53
2021/12/27 10:26:59;;;;;;;76.43;26.73;;;-1.90;99.90;;;;;;5011223;28;20037;-51
2021/12/27 10:29:28;;;;;;;71.00;29.02;;;-1.90;99.90;;;;;;5009284;28;20272;-52
2021/12/27 10:32:04;;;;;;;71.22;28.52;;;-1.90;99.90;;;;;;5010556;28;20033;-54
2021/12/27 10:34:50;;;;;;;81.63;29.05;;;-1.90;99.90;;;;;;5010974;28;20087;-55
2021/12/27 10:37:17;;;;;;;72.47;27.35;;;-1.90;99.90;;;;;;5010943;28;20057;-51
2021/12/27 10:39:53;;;;;;;72.88;27.92;;;-1.80;99.90;;;;;;5011275;28;20040;-52
2021/12/27 10:42:26;;;;;;;73.90;28.67;;;-1.80;99.90;;;;;;5010270;28;20036;-56
2021/12/27 10:44:54;;;;;;;84.05;29.40;;;-1.80;99.90;;;;;;5010359;28;20484;-55
2021/12/27 10:47:24;;;;;;;70.25;27.52;;;-1.80;99.90;;;;;;5019825;28;20029;-55
2021/12/27 10:49:51;;;;;;;81.20;29.08;;;-1.80;99.90;;;;;;5008628;28;20475;-53
2021/12/27 10:52:16;;;;;;;76.05;28.27;;;-1.70;99.90;;;;;;5009873;28;20050;-52
2021/12/27 10:54:42;;;;;;;76.85;28.90;;;-1.80;99.90;;;;;;5011884;28;20119;-56
2021/12/27 10:57:08;;;;;;;75.30;28.38;;;-1.70;99.90;;;;;;5010979;28;20085;-56
2021/12/27 10:59:33;;;;;;;83.88;28.50;;;-1.60;99.90;;;;;;5009948;28;20136;-53
2021/12/27 11:02:32;;;;;;;81.47;28.63;;;-1.60;99.90;;;;;;5010632;28;20068;-55
2021/12/27 11:05:16;;;;;;;78.38;29.45;;;-1.60;99.90;;;;;;5008755;28;20460;-54
2021/12/27 11:07:42;;;;;;;76.95;28.52;;;-1.60;99.90;;;;;;4991122;28;20053;-55
2021/12/27 11:10:09;;;;;;;78.43;29.30;;;-1.60;99.90;;;;;;5010374;28;20135;-53
2021/12/27 11:12:34;;;;;;;83.43;30.05;;;-1.50;99.90;;;;;;5009522;28;20117;-56
2021/12/27 11:15:00;;;;;;;79.68;30.58;;;-1.40;99.90;;;;;;5009774;28;20037;-55
2021/12/27 11:17:26;;;;;;;81.15;30.67;;;-1.40;99.90;;;;;;5009686;28;20038;-53
2021/12/27 11:19:51;;;;;;;86.80;30.70;;;-1.30;99.90;;;;;;5010392;28;20040;-52
2021/12/27 11:22:17;;;;;;;80.80;30.20;;;-1.40;99.90;;;;;;5011067;28;20037;-54
2021/12/27 11:24:44;;;;;;;73.78;29.27;;;-1.40;99.90;;;;;;5009090;28;20034;-56
2021/12/27 11:27:13;;;;;;;76.97;28.95;;;-1.40;99.90;;;;;;5004905;28;20500;-55
2021/12/27 11:29:39;;;;;;;82.07;30.95;;;-1.40;99.90;;;;;;5010911;28;20084;-54
2021/12/27 11:32:16;;;;;;;77.70;29.50;;;-1.40;99.90;;;;;;5014131;28;20123;-54
2021/12/27 11:34:56;;;;;;;87.28;29.75;;;-1.40;99.90;;;;;;4999636;28;20029;-54
2021/12/27 11:37:38;;;;;;;75.70;29.80;;;-1.40;99.90;;;;;;5013624;28;20033;-56
2021/12/27 11:40:12;;;;;;;82.50;32.15;;;-1.40;99.90;;;;;;5012244;28;20117;-57
2021/12/27 11:42:59;;;;;;;77.78;30.90;;;-1.40;99.90;;;;;;5001607;28;20689;-54
2021/12/27 11:45:41;;;;;;;85.30;30.98;;;-1.30;99.90;;;;;;5010000;28;20030;-53
2021/12/27 11:48:09;;;;;;;80.10;31.17;;;-1.30;99.90;;;;;;5010464;28;20100;-53
2021/12/27 11:50:58;;;;;;;78.18;29.27;;;-1.20;99.90;;;;;;5007564;28;20168;-55
2021/12/27 11:53:32;;;;;;;79.88;30.55;;;-1.20;99.90;;;;;;5008854;28;20080;-57
2021/12/27 11:55:59;;;;;;;77.88;30.42;;;-1.10;99.90;;;;;;5009553;28;20022;-52
2021/12/27 11:58:35;;;;;;;73.68;29.88;;;-1.10;99.90;;;;;;5009301;28;20112;-50
2021/12/27 12:01:27;;;;;;;74.18;29.23;;;-1.10;99.90;;;;;;5009995;28;20037;-53
2021/12/27 12:03:55;;;;;;;76.53;29.50;;;-1.10;99.90;;;;;;4978901;28;20033;-51
2021/12/27 12:06:36;;;;;;;85.20;30.48;;;-1.10;99.90;;;;;;5009622;28;20034;-52
2021/12/27 12:09:14;;;;;;;80.40;31.08;;;-1.10;99.90;;;;;;5012074;28;20029;-52
2021/12/27 12:11:40;;;;;;;78.72;30.35;;;-1.10;99.90;;;;;;5007190;28;20032;-52
2021/12/27 12:14:34;;;;;;;80.32;31.92;;;-1.10;99.90;;;;;;5012568;28;20026;-53
2021/12/27 12:17:02;;;;;;;91.47;31.40;;;-1.10;99.90;;;;;;5012938;28;20385;-55
2021/12/27 12:19:42;;;;;;;84.15;31.80;;;-1.10;99.90;;;;;;5012964;28;20064;-55
2021/12/27 12:22:33;;;;;;;81.75;30.20;;;-1.10;99.90;;;;;;5011945;28;20034;-56
2021/12/27 12:25:25;;;;;;;83.57;32.42;;;-1.10;99.90;;;;;;5012079;28;20064;-53
2021/12/27 12:27:58;;;;;;;85.55;31.67;;;-1.10;99.90;;;;;;5010969;28;20430;-52
2021/12/27 12:30:36;;;;;;;70.97;30.48;;;-1.10;99.90;;;;;;5013479;28;20140;-55